Time;durP1;ratioP1;P1;durP2;ratioP2;P2;SDS_P1;SDS_P2;PMS_P1;PMS_P2;Temp;Humidity;BMP_temperature;BMP_pressure;BME280_temperature;BME280_humidity;BME280_pressure;Samples;Min_cycle;Max_cycle;Signal;HPM_P1;HPM_P2
2023/12/03 00:01:24;;;;;;;;;;;;;;;-4.31;79.60;99448.53;5026330;28;20397;-71
2023/12/03 00:03:50;;;;;;;;;;;;;;;-4.35;79.95;99441.94;5028793;28;19979;-71
2023/12/03 00:06:16;;;;;;;;;;;;;;;-4.35;79.92;99449.13;4991172;28;20378;-71
2023/12/03 00:08:42;;;;;;;;;;;;;;;-4.37;79.62;99435.09;5023409;28;19917;-70
2023/12/03 00:11:09;;;;;;;;;;;;;;;-4.37;79.57;99432.44;5007168;28;20587;-69
2023/12/03 00:13:35;;;;;;;;;;;;;;;-4.43;79.47;99432.19;5006945;28;20028;-71
2023/12/03 00:16:02;;;;;;;;;;;;;;;-4.39;80.15;99427.31;5026189;28;20447;-71
2023/12/03 00:18:28;;;;;;;;;;;;;;;-4.29;80.52;99421.66;5026831;28;19929;-71
2023/12/03 00:20:53;;;;;;;;;;;;;;;-4.18;80.42;99429.22;5023070;28;20368;-71
2023/12/03 00:23:19;;;;;;;;;;;;;;;-4.15;80.45;99423.47;5025950;28;19929;-71
2023/12/03 00:25:45;;;;;;;;;;;;;;;-4.14;80.71;99419.78;5024762;28;19964;-71
2023/12/03 00:28:12;;;;;;;;;;;;;;;-4.13;80.76;99421.44;5023551;28;20289;-72
2023/12/03 00:30:38;;;;;;;;;;;;;;;-4.14;80.58;99424.28;5025293;28;19933;-72
2023/12/03 00:33:04;;;;;;;;;;;;;;;-4.36;79.82;99421.59;5026538;28;20019;-72
2023/12/03 00:35:30;;;;;;;;;;;;;;;-4.44;80.68;99417.19;5026812;28;19929;-73
2023/12/03 00:37:56;;;;;;;;;;;;;;;-4.44;80.65;99419.03;5040450;28;20352;-72
2023/12/03 00:40:22;;;;;;;;;;;;;;;-4.38;81.22;99417.44;5025743;28;20418;-72
2023/12/03 00:42:48;;;;;;;;;;;;;;;-4.41;80.76;99421.31;5029741;28;19960;-70
2023/12/03 00:45:16;;;;;;;;;;;;;;;-4.39;80.90;99424.63;5006074;28;20293;-70
2023/12/03 00:47:42;;;;;;;;;;;;;;;-4.35;80.90;99423.25;5024259;28;19929;-70
2023/12/03 00:50:08;;;;;;;;;;;;;;;-4.38;80.81;99425.44;5024136;28;20469;-70
2023/12/03 00:52:34;;;;;;;;;;;;;;;-4.37;81.33;99432.44;5024413;28;19936;-70
2023/12/03 00:55:01;;;;;;;;;;;;;;;-4.35;81.08;99425.09;5025264;28;19929;-70
2023/12/03 00:57:27;;;;;;;;;;;;;;;-4.37;81.04;99403.06;5023185;28;19987;-71
2023/12/03 00:59:53;;;;;;;;;;;;;;;-4.44;80.91;99403.84;5023072;28;19933;-72
2023/12/03 01:02:21;;;;;;;;;;;;;;;-4.39;81.06;99397.94;5005609;28;20399;-70
2023/12/03 01:04:47;;;;;;;;;;;;;;;-4.44;81.14;99393.16;5025081;28;19929;-69
2023/12/03 01:07:13;;;;;;;;;;;;;;;-4.53;80.83;99398.78;5024139;28;19975;-70
2023/12/03 01:09:38;;;;;;;;;;;;;;;-4.67;80.56;99392.47;5021938;28;19928;-69
2023/12/03 01:12:05;;;;;;;;;;;;;;;-4.66;81.41;99400.25;5023630;28;19929;-69
2023/12/03 01:14:31;;;;;;;;;;;;;;;-4.68;81.53;99401.44;5024571;28;19929;-69
2023/12/03 01:16:56;;;;;;;;;;;;;;;-4.57;81.89;99403.66;5005293;28;20327;-69
2023/12/03 01:19:24;;;;;;;;;;;;;;;-4.49;81.85;99397.41;5023266;28;20471;-69
2023/12/03 01:21:49;;;;;;;;;;;;;;;-4.47;81.75;99409.56;5024206;28;20443;-72
2023/12/03 01:24:15;;;;;;;;;;;;;;;-4.43;81.34;99405.47;5023606;28;19972;-70
2023/12/03 01:26:41;;;;;;;;;;;;;;;-4.41;81.15;99418.66;5025469;28;19932;-70
2023/12/03 01:29:07;;;;;;;;;;;;;;;-4.38;81.09;99412.94;5022230;28;20443;-70
2023/12/03 01:31:33;;;;;;;;;;;;;;;-4.40;80.91;99409.63;5024110;28;19936;-70
2023/12/03 01:33:59;;;;;;;;;;;;;;;-4.43;81.00;99412.69;5007572;28;19929;-70
2023/12/03 01:36:26;;;;;;;;;;;;;;;-4.42;81.04;99419.69;5023137;28;20392;-69
2023/12/03 01:38:52;;;;;;;;;;;;;;;-4.42;81.19;99420.50;5024007;28;19983;-72
2023/12/03 01:41:17;;;;;;;;;;;;;;;-4.41;81.47;99414.13;5006552;28;19929;-72
2023/12/03 01:43:47;;;;;;;;;;;;;;;-4.46;81.57;99407.69;5026711;28;19936;-72
2023/12/03 01:46:13;;;;;;;;;;;;;;;-4.46;81.82;99405.88;5021014;28;19933;-71
2023/12/03 01:48:39;;;;;;;;;;;;;;;-4.44;81.88;99411.84;5004354;28;19929;-72
2023/12/03 01:51:05;;;;;;;;;;;;;;;-4.50;81.49;99409.09;5026532;28;19932;-72
2023/12/03 01:53:33;;;;;;;;;;;;;;;-4.62;81.73;99403.41;5023770;28;19929;-72
2023/12/03 01:55:59;;;;;;;;;;;;;;;-4.61;82.01;99403.19;5024660;28;19929;-72
2023/12/03 01:58:25;;;;;;;;;;;;;;;-4.58;81.98;99407.34;5007155;28;20360;-72
2023/12/03 02:00:51;;;;;;;;;;;;;;;-4.51;82.06;99407.44;5025119;28;19964;-72
2023/12/03 02:03:17;;;;;;;;;;;;;;;-4.50;81.93;99406.41;5021937;28;20047;-72
2023/12/03 02:05:47;;;;;;;;;;;;;;;-4.51;82.05;99408.28;5025072;28;19929;-72
2023/12/03 02:08:13;;;;;;;;;;;;;;;-4.53;81.75;99404.94;5023606;28;19936;-72
2023/12/03 02:10:40;;;;;;;;;;;;;;;-4.53;81.78;99418.28;5023549;28;20011;-72
2023/12/03 02:13:06;;;;;;;;;;;;;;;-4.53;82.10;99420.94;5021802;28;20055;-72
2023/12/03 02:15:32;;;;;;;;;;;;;;;-4.49;82.32;99413.41;5005592;28;20285;-72
2023/12/03 02:17:58;;;;;;;;;;;;;;;-4.56;82.21;99414.16;5023394;28;20023;-72
2023/12/03 02:20:24;;;;;;;;;;;;;;;-4.62;82.09;99409.53;5023175;28;20447;-72
2023/12/03 02:23:01;;;;;;;;;;;;;;;-4.65;82.19;99409.09;5023761;28;20467;-72
2023/12/03 02:25:27;;;;;;;;;;;;;;;-4.71;81.86;99403.47;5025701;28;19933;-72
2023/12/03 02:27:53;;;;;;;;;;;;;;;-4.75;81.96;99412.88;5023669;28;20069;-72
2023/12/03 02:30:18;;;;;;;;;;;;;;;-4.79;82.23;99414.25;5024721;28;19929;-72
2023/12/03 02:32:44;;;;;;;;;;;;;;;-4.84;81.76;99403.28;5021823;28;19936;-72
2023/12/03 02:35:10;;;;;;;;;;;;;;;-4.93;81.71;99407.88;5020332;28;19979;-72
2023/12/03 02:37:36;;;;;;;;;;;;;;;-5.04;81.83;99409.19;5005796;28;20007;-72
2023/12/03 02:40:04;;;;;;;;;;;;;;;-5.08;82.23;99410.56;5023302;28;19975;-72
2023/12/03 02:42:31;;;;;;;;;;;;;;;-5.12;82.46;99409.28;5023786;28;19929;-73
2023/12/03 02:44:56;;;;;;;;;;;;;;;-5.18;82.32;99415.31;5024139;28;19929;-72
2023/12/03 02:47:22;;;;;;;;;;;;;;;-5.29;82.55;99425.44;5022979;28;19933;-70
2023/12/03 02:49:48;;;;;;;;;;;;;;;-5.33;83.00;99409.97;5023294;28;19933;-69
2023/12/03 02:52:14;;;;;;;;;;;;;;;-5.30;83.24;99420.25;5025323;28;19929;-70
2023/12/03 02:54:40;;;;;;;;;;;;;;;-5.27;83.26;99415.41;5021586;28;20002;-70
2023/12/03 02:57:08;;;;;;;;;;;;;;;-5.26;83.14;99413.56;5003237;28;20375;-70
2023/12/03 02:59:34;;;;;;;;;;;;;;;-5.25;82.96;99409.06;5021720;28;19929;-69
2023/12/03 03:02:00;;;;;;;;;;;;;;;-5.27;82.74;99407.41;5021909;28;19968;-72
2023/12/03 03:04:26;;;;;;;;;;;;;;;-5.31;82.81;99426.59;5021128;28;19928;-72
2023/12/03 03:06:52;;;;;;;;;;;;;;;-5.35;82.71;99418.13;5020065;28;19933;-73
2023/12/03 03:09:17;;;;;;;;;;;;;;;-5.44;82.75;99389.91;5022029;28;19929;-73
2023/12/03 03:11:43;;;;;;;;;;;;;;;-5.43;82.98;99408.38;5022067;28;19936;-73
2023/12/03 03:14:11;;;;;;;;;;;;;;;-5.51;82.58;99395.13;5005458;28;19936;-73
2023/12/03 03:16:37;;;;;;;;;;;;;;;-5.47;82.96;99400.91;5020342;28;19929;-72
2023/12/03 03:19:04;;;;;;;;;;;;;;;-5.44;82.99;99417.38;5023670;28;19975;-72
2023/12/03 03:21:30;;;;;;;;;;;;;;;-5.46;82.97;99411.41;4990345;28;20463;-72
2023/12/03 03:23:55;;;;;;;;;;;;;;;-5.39;83.13;99381.34;5025023;28;19929;-69
2023/12/03 03:26:21;;;;;;;;;;;;;;;-5.39;82.89;99394.69;5023849;28;19980;-72
2023/12/03 03:28:47;;;;;;;;;;;;;;;-5.38;82.89;99388.38;5009584;28;19937;-71
2023/12/03 03:31:14;;;;;;;;;;;;;;;-5.35;82.83;99390.66;5028686;28;20036;-72
2023/12/03 03:33:40;;;;;;;;;;;;;;;-5.34;82.75;99385.13;5027768;28;20059;-72
2023/12/03 03:36:06;;;;;;;;;;;;;;;-5.37;83.01;99361.50;5009762;28;19967;-72
2023/12/03 03:38:32;;;;;;;;;;;;;;;-5.47;82.98;99355.59;5026191;28;19929;-72
2023/12/03 03:40:58;;;;;;;;;;;;;;;-5.57;83.08;99356.72;5027237;28;19929;-72
2023/12/03 03:43:23;;;;;;;;;;;;;;;-5.63;83.69;99361.94;5027954;28;19933;-72
2023/12/03 03:45:50;;;;;;;;;;;;;;;-5.67;83.69;99369.44;5024413;28;20491;-72
2023/12/03 03:48:17;;;;;;;;;;;;;;;-5.66;84.13;99357.78;5026033;28;19933;-73
2023/12/03 03:50:43;;;;;;;;;;;;;;;-5.57;84.03;99351.38;5025015;28;20035;-73
2023/12/03 03:53:09;;;;;;;;;;;;;;;-5.54;83.25;99344.88;5024240;28;20031;-74
2023/12/03 03:55:35;;;;;;;;;;;;;;;-5.56;82.28;99336.19;5035214;28;20408;-73
2023/12/03 03:58:00;;;;;;;;;;;;;;;-5.60;82.54;99332.25;5007144;28;20536;-72
2023/12/03 04:00:26;;;;;;;;;;;;;;;-5.65;83.06;99332.78;5024945;28;19982;-73
2023/12/03 04:02:52;;;;;;;;;;;;;;;-5.65;83.12;99334.63;5025920;28;19929;-72
2023/12/03 04:05:20;;;;;;;;;;;;;;;-5.71;83.09;99338.84;5024819;28;20032;-72
2023/12/03 04:07:46;;;;;;;;;;;;;;;-5.73;83.26;99344.34;5024851;28;20432;-72
2023/12/03 04:10:12;;;;;;;;;;;;;;;-5.70;83.50;99353.81;5006332;28;20016;-71
2023/12/03 04:12:38;;;;;;;;;;;;;;;-5.67;83.56;99353.47;5024127;28;19984;-71
2023/12/03 04:15:05;;;;;;;;;;;;;;;-5.67;83.40;99353.47;5023726;28;19952;-73
2023/12/03 04:17:31;;;;;;;;;;;;;;;-5.63;83.55;99352.09;5025360;28;19940;-73
2023/12/03 04:19:57;;;;;;;;;;;;;;;-5.59;83.72;99358.72;5025471;28;20285;-71
2023/12/03 04:22:24;;;;;;;;;;;;;;;-5.58;83.66;99370.19;5022117;28;20420;-72
2023/12/03 04:24:50;;;;;;;;;;;;;;;-5.57;83.68;99372.69;5022674;28;19991;-71
2023/12/03 04:27:16;;;;;;;;;;;;;;;-5.60;83.58;99366.88;5023334;28;19940;-71
2023/12/03 04:29:42;;;;;;;;;;;;;;;-5.63;83.82;99359.25;5008495;28;19929;-69
2023/12/03 04:32:08;;;;;;;;;;;;;;;-5.61;84.28;99366.06;5026109;28;20040;-69
2023/12/03 04:34:34;;;;;;;;;;;;;;;-5.58;84.12;99359.53;5010529;28;20427;-69
2023/12/03 04:37:00;;;;;;;;;;;;;;;-5.59;84.53;99361.41;5026722;28;19929;-69
2023/12/03 04:39:28;;;;;;;;;;;;;;;-5.50;84.23;99364.81;5026264;28;19936;-69
2023/12/03 04:41:54;;;;;;;;;;;;;;;-5.49;83.68;99360.28;5024545;28;19929;-69
2023/12/03 04:44:20;;;;;;;;;;;;;;;-5.48;83.50;99361.94;5023526;28;19963;-69
2023/12/03 04:46:46;;;;;;;;;;;;;;;-5.48;83.80;99357.47;4989291;28;20402;-69
2023/12/03 04:49:12;;;;;;;;;;;;;;;-5.49;83.64;99361.13;5021525;28;19933;-69
2023/12/03 04:51:38;;;;;;;;;;;;;;;-5.49;83.63;99360.28;5025945;28;19936;-69
2023/12/03 04:54:04;;;;;;;;;;;;;;;-5.46;83.57;99360.75;5022258;28;20459;-70
2023/12/03 04:56:31;;;;;;;;;;;;;;;-5.46;83.61;99349.28;4989054;28;19964;-70
2023/12/03 04:58:57;;;;;;;;;;;;;;;-5.45;83.70;99338.44;5022433;28;19929;-69
2023/12/03 05:01:23;;;;;;;;;;;;;;;-5.43;84.02;99344.41;5025216;28;19982;-72
2023/12/03 05:03:49;;;;;;;;;;;;;;;-5.38;84.04;99341.22;5024092;28;19929;-69
2023/12/03 05:06:15;;;;;;;;;;;;;;;-5.35;84.01;99348.84;5025762;28;20466;-69
2023/12/03 05:08:41;;;;;;;;;;;;;;;-5.31;84.23;99346.63;5022746;28;21323;-70
2023/12/03 05:11:06;;;;;;;;;;;;;;;-5.30;84.18;99351.81;5023356;28;19950;-69
2023/12/03 05:13:34;;;;;;;;;;;;;;;-5.31;83.70;99354.63;5004371;28;19936;-70
2023/12/03 05:16:00;;;;;;;;;;;;;;;-5.32;83.61;99359.13;5007087;28;20411;-70
2023/12/03 05:18:26;;;;;;;;;;;;;;;-5.37;83.58;99350.03;5004447;28;19936;-71
2023/12/03 05:20:52;;;;;;;;;;;;;;;-5.37;83.37;99355.38;5003906;28;19929;-71
2023/12/03 05:23:18;;;;;;;;;;;;;;;-5.32;83.20;99369.78;5038322;28;20023;-72
2023/12/03 05:25:44;;;;;;;;;;;;;;;-5.30;83.10;99366.94;5022283;28;19928;-72
2023/12/03 05:28:09;;;;;;;;;;;;;;;-5.28;83.25;99346.28;5023921;28;19929;-71
2023/12/03 05:30:37;;;;;;;;;;;;;;;-5.26;82.97;99349.56;5006135;28;19964;-72
2023/12/03 05:33:02;;;;;;;;;;;;;;;-5.28;82.53;99349.78;5021350;28;20006;-72
2023/12/03 05:35:28;;;;;;;;;;;;;;;-5.34;82.44;99355.00;5024751;28;19928;-69
2023/12/03 05:37:54;;;;;;;;;;;;;;;-5.33;82.35;99359.31;5023162;28;19936;-69
2023/12/03 05:40:20;;;;;;;;;;;;;;;-5.37;82.24;99350.03;5023928;28;19929;-69
2023/12/03 05:42:46;;;;;;;;;;;;;;;-5.46;82.34;99343.97;5025398;28;20467;-69
2023/12/03 05:45:12;;;;;;;;;;;;;;;-5.49;82.96;99341.63;5023071;28;20315;-69
2023/12/03 05:47:40;;;;;;;;;;;;;;;-5.45;83.42;99334.97;5026015;28;19929;-72
2023/12/03 05:50:06;;;;;;;;;;;;;;;-5.44;83.39;99336.63;5023781;28;19929;-72
2023/12/03 05:52:32;;;;;;;;;;;;;;;-5.44;83.48;99337.44;5025145;28;19972;-71
2023/12/03 05:54:58;;;;;;;;;;;;;;;-5.48;83.15;99344.13;5025870;28;19976;-72
2023/12/03 05:57:24;;;;;;;;;;;;;;;-5.56;83.06;99345.03;5024826;28;19975;-72
2023/12/03 05:59:50;;;;;;;;;;;;;;;-5.65;82.78;99340.78;5021778;28;20418;-72
2023/12/03 06:02:16;;;;;;;;;;;;;;;-5.74;82.47;99345.34;5006013;28;20035;-72
2023/12/03 06:04:43;;;;;;;;;;;;;;;-5.77;82.53;99345.72;5023325;28;19933;-72
2023/12/03 06:07:09;;;;;;;;;;;;;;;-5.86;81.88;99333.47;5023908;28;19929;-72
2023/12/03 06:09:35;;;;;;;;;;;;;;;-5.91;81.58;99339.34;5005130;28;19929;-72
2023/12/03 06:12:01;;;;;;;;;;;;;;;-5.92;81.71;99347.50;5021369;28;19965;-72
2023/12/03 06:14:27;;;;;;;;;;;;;;;-5.95;81.44;99343.34;5021251;28;19959;-72
2023/12/03 06:16:53;;;;;;;;;;;;;;;-5.99;81.56;99331.41;5027198;28;19929;-72
2023/12/03 06:19:19;;;;;;;;;;;;;;;-5.99;81.48;99332.25;5024606;28;20018;-72
2023/12/03 06:21:47;;;;;;;;;;;;;;;-6.00;81.25;99327.09;5026017;28;19929;-72
2023/12/03 06:24:13;;;;;;;;;;;;;;;-6.01;81.33;99322.81;5022378;28;20390;-72
2023/12/03 06:26:38;;;;;;;;;;;;;;;-6.07;81.03;99315.53;5025619;28;20023;-69
2023/12/03 06:29:04;;;;;;;;;;;;;;;-6.14;81.42;99297.59;5021201;28;19929;-70
2023/12/03 06:31:32;;;;;;;;;;;;;;;-6.18;80.63;99298.13;5019518;28;19983;-70
2023/12/03 06:33:58;;;;;;;;;;;;;;;-6.19;80.97;99289.34;5012248;28;19979;-69
2023/12/03 06:36:25;;;;;;;;;;;;;;;-6.20;81.07;99287.69;5014052;28;20557;-69
2023/12/03 06:38:53;;;;;;;;;;;;;;;-6.25;81.24;99281.22;5015640;28;19975;-69
2023/12/03 06:41:19;;;;;;;;;;;;;;;-6.26;81.21;99288.38;5012091;28;19933;-69
2023/12/03 06:43:45;;;;;;;;;;;;;;;-6.31;80.84;99285.44;5012133;28;19934;-70
2023/12/03 06:46:11;;;;;;;;;;;;;;;-6.41;80.77;99265.19;5012273;28;19929;-69
2023/12/03 06:48:40;;;;;;;;;;;;;;;-6.40;80.58;99260.72;4996458;28;19936;-69
2023/12/03 06:51:08;;;;;;;;;;;;;;;-6.47;80.12;99255.28;5014225;28;19929;-69
2023/12/03 06:53:34;;;;;;;;;;;;;;;-6.48;79.48;99242.13;5021870;28;20411;-70
2023/12/03 06:56:04;;;;;;;;;;;;;;;-6.42;79.73;99234.28;5009854;28;19929;-69
2023/12/03 06:58:30;;;;;;;;;;;;;;;-6.42;79.92;99234.28;5010124;28;19930;-69
2023/12/03 07:00:57;;;;;;;;;;;;;;;-6.39;79.46;99230.44;5008209;28;19975;-72
2023/12/03 07:03:23;;;;;;;;;;;;;;;-6.33;79.72;99228.91;5000290;28;19929;-72
2023/12/03 07:05:49;;;;;;;;;;;;;;;-6.29;79.68;99232.84;5011517;28;20436;-69
2023/12/03 07:08:15;;;;;;;;;;;;;;;-6.30;79.14;99240.03;5015682;28;20028;-69
2023/12/03 07:10:41;;;;;;;;;;;;;;;-6.27;79.47;99247.66;5022535;28;19964;-72
2023/12/03 07:13:09;;;;;;;;;;;;;;;-6.30;79.82;99263.97;5018897;28;19929;-72
2023/12/03 07:15:34;;;;;;;;;;;;;;;-6.29;79.83;99268.28;5022085;28;20458;-72
2023/12/03 07:18:00;;;;;;;;;;;;;;;-6.26;79.92;99283.06;5022281;28;19936;-72
2023/12/03 07:20:26;;;;;;;;;;;;;;;-6.27;80.01;99289.38;5022452;28;19928;-70
2023/12/03 07:22:53;;;;;;;;;;;;;;;-6.31;80.37;99288.09;5019525;28;19976;-72
2023/12/03 07:25:19;;;;;;;;;;;;;;;-6.32;80.54;99294.41;5020571;28;19952;-71
2023/12/03 07:27:45;;;;;;;;;;;;;;;-6.32;80.77;99300.59;5017807;28;19935;-69
2023/12/03 07:30:13;;;;;;;;;;;;;;;-6.36;80.48;99303.78;5019863;28;19937;-69
2023/12/03 07:32:39;;;;;;;;;;;;;;;-6.36;81.07;99320.53;5020826;28;20415;-69
2023/12/03 07:35:05;;;;;;;;;;;;;;;-6.30;81.41;99321.69;5020452;28;19929;-70
2023/12/03 07:37:31;;;;;;;;;;;;;;;-6.21;81.71;99317.13;5020473;28;20032;-69
2023/12/03 07:39:57;;;;;;;;;;;;;;;-6.10;81.66;99310.56;5019855;28;20144;-69
2023/12/03 07:42:24;;;;;;;;;;;;;;;-6.03;81.80;99311.50;5019999;28;19936;-70
2023/12/03 07:44:50;;;;;;;;;;;;;;;-5.99;81.62;99302.13;5004208;28;19979;-69
2023/12/03 07:47:18;;;;;;;;;;;;;;;-5.94;81.89;99306.91;5022605;28;19975;-69
2023/12/03 07:49:44;;;;;;;;;;;;;;;-5.92;82.12;99304.91;5020941;28;19935;-69
2023/12/03 07:52:10;;;;;;;;;;;;;;;-5.87;82.39;99313.16;5002880;28;19929;-69
2023/12/03 07:54:36;;;;;;;;;;;;;;;-5.87;82.20;99305.19;5018697;28;20028;-69
2023/12/03 07:57:02;;;;;;;;;;;;;;;-5.84;82.46;99300.31;5016067;28;19983;-68
2023/12/03 07:59:29;;;;;;;;;;;;;;;-5.84;82.37;99303.00;5018793;28;19975;-69
2023/12/03 08:01:55;;;;;;;;;;;;;;;-5.86;82.43;99298.84;5017241;28;19928;-71
2023/12/03 08:04:22;;;;;;;;;;;;;;;-5.85;82.97;99298.69;5001314;28;19936;-71
2023/12/03 08:06:48;;;;;;;;;;;;;;;-5.79;83.01;99298.94;4984257;28;20027;-71
2023/12/03 08:09:14;;;;;;;;;;;;;;;-5.78;82.83;99285.47;5019611;28;20020;-71
2023/12/03 08:11:40;;;;;;;;;;;;;;;-5.82;83.00;99273.53;5003426;28;19936;-71
2023/12/03 08:14:06;;;;;;;;;;;;;;;-5.85;83.07;99271.22;5020040;28;19940;-71
2023/12/03 08:16:32;;;;;;;;;;;;;;;-5.88;83.07;99263.56;5023912;28;19929;-71
2023/12/03 08:18:59;;;;;;;;;;;;;;;-5.86;83.59;99259.75;5024413;28;19982;-71
2023/12/03 08:21:27;;;;;;;;;;;;;;;-5.93;83.40;99250.81;5022823;28;19936;-72
2023/12/03 08:23:53;;;;;;;;;;;;;;;-5.88;84.06;99228.97;5024661;28;20036;-71
2023/12/03 08:26:19;;;;;;;;;;;;;;;-5.87;84.12;99203.97;5024261;28;19929;-72
2023/12/03 08:28:45;;;;;;;;;;;;;;;-5.87;83.95;99193.31;5022261;28;20289;-72
2023/12/03 08:31:11;;;;;;;;;;;;;;;-5.82;84.11;99187.47;5023669;28;20032;-71
2023/12/03 08:33:37;;;;;;;;;;;;;;;-5.86;84.05;99185.16;5022292;28;19929;-71
2023/12/03 08:36:03;;;;;;;;;;;;;;;-5.90;84.50;99181.22;5023534;28;19929;-69
2023/12/03 08:38:31;;;;;;;;;;;;;;;-5.90;84.74;99183.03;5021374;28;20107;-69
2023/12/03 08:40:57;;;;;;;;;;;;;;;-5.93;84.89;99181.59;5023062;28;19980;-70
2023/12/03 08:43:22;;;;;;;;;;;;;;;-5.92;85.11;99175.25;5022624;28;20403;-69
2023/12/03 08:45:48;;;;;;;;;;;;;;;-5.97;85.19;99145.66;5022243;28;19936;-69
2023/12/03 08:48:15;;;;;;;;;;;;;;;-5.93;85.29;99132.81;5022990;28;20039;-70
2023/12/03 08:50:41;;;;;;;;;;;;;;;-5.84;85.63;99145.88;5022744;28;20020;-70
2023/12/03 08:53:07;;;;;;;;;;;;;;;-5.75;85.85;99143.13;5021938;28;19936;-70
2023/12/03 08:55:34;;;;;;;;;;;;;;;-5.78;85.85;99141.63;5021030;28;19936;-69
2023/12/03 08:58:01;;;;;;;;;;;;;;;-5.76;85.69;99120.97;5021908;28;20585;-70
2023/12/03 09:00:30;;;;;;;;;;;;;;;-5.72;86.04;99102.78;5019394;28;19972;-71
2023/12/03 09:02:56;;;;;;;;;;;;;;;-5.70;85.82;99092.78;4673467;28;10000556;-71
2023/12/03 09:05:22;;;;;;;;;;;;;;;-5.65;85.96;99086.88;5017927;28;19941;-71
2023/12/03 09:07:47;;;;;;;;;;;;;;;-5.67;86.03;99078.25;5020235;28;19929;-70
2023/12/03 09:10:13;;;;;;;;;;;;;;;-5.66;85.25;99078.06;5017079;28;19929;-69
2023/12/03 09:12:42;;;;;;;;;;;;;;;-5.63;85.16;99069.69;5015051;28;20359;-69
2023/12/03 09:15:08;;;;;;;;;;;;;;;-5.63;85.09;99068.88;5000280;28;19929;-69
2023/12/03 09:17:34;;;;;;;;;;;;;;;-5.61;85.33;99050.88;5017858;28;19964;-70
2023/12/03 09:20:00;;;;;;;;;;;;;;;-5.70;85.50;99053.66;5018609;28;20022;-69
2023/12/03 09:22:28;;;;;;;;;;;;;;;-5.77;85.58;99044.75;5031728;28;20455;-70
2023/12/03 09:24:54;;;;;;;;;;;;;;;-5.81;85.44;99038.16;5017888;28;20447;-70
2023/12/03 09:27:20;;;;;;;;;;;;;;;-5.82;85.23;99038.31;5018640;28;20458;-72
2023/12/03 09:29:48;;;;;;;;;;;;;;;-5.82;85.44;99039.16;5019358;28;19936;-69
2023/12/03 09:32:14;;;;;;;;;;;;;;;-5.77;85.47;99023.44;5017677;28;20003;-71
2023/12/03 09:34:40;;;;;;;;;;;;;;;-5.71;85.41;99006.69;4999104;28;20708;-69
2023/12/03 09:37:07;;;;;;;;;;;;;;;-5.67;85.05;99007.16;5016813;28;20027;-70
2023/12/03 09:39:33;;;;;;;;;;;;;;;-5.60;85.02;99005.41;5017687;28;19938;-69
2023/12/03 09:42:02;;;;;;;;;;;;;;;-5.58;85.02;98999.88;5018512;28;19929;-70
2023/12/03 09:44:33;;;;;;;;;;;;;;;-5.57;85.01;99007.69;5014735;28;19976;-70
2023/12/03 09:47:02;;;;;;;;;;;;;;;-5.52;84.83;99003.63;5016586;28;20428;-70
2023/12/03 09:49:28;;;;;;;;;;;;;;;-5.55;84.89;98984.34;5016333;28;20451;-70
2023/12/03 09:51:57;;;;;;;;;;;;;;;-5.51;85.17;98982.13;5019623;28;19929;-70
2023/12/03 09:54:23;;;;;;;;;;;;;;;-5.53;84.83;98983.31;5020309;28;19929;-70
2023/12/03 09:56:50;;;;;;;;;;;;;;;-5.67;84.61;98977.84;5036858;28;20482;-70
2023/12/03 09:59:16;;;;;;;;;;;;;;;-5.74;84.55;98972.44;5021569;28;20323;-70
2023/12/03 10:01:42;;;;;;;;;;;;;;;-5.76;84.71;98973.66;5021416;28;19960;-71
2023/12/03 10:04:09;;;;;;;;;;;;;;;-5.76;84.95;98961.16;5011419;28;20106;-72
2023/12/03 10:06:40;;;;;;;;;;;;;;;-5.79;85.36;98961.53;5021617;28;20036;-71
2023/12/03 10:09:06;;;;;;;;;;;;;;;-5.79;85.65;98963.38;5021276;28;19929;-72
2023/12/03 10:11:37;;;;;;;;;;;;;;;-5.75;85.54;98960.16;5020850;28;19948;-71
2023/12/03 10:14:05;;;;;;;;;;;;;;;-5.70;85.54;98954.25;5022658;28;20195;-71
2023/12/03 10:16:32;;;;;;;;;;;;;;;-5.73;85.27;98938.66;5005462;28;19929;-70
2023/12/03 10:18:58;;;;;;;;;;;;;;;-5.70;85.44;98954.25;5020027;28;20028;-70
2023/12/03 10:21:27;;;;;;;;;;;;;;;-5.68;85.42;98960.22;5003680;28;20028;-70
2023/12/03 10:24:00;;;;;;;;;;;;;;;-5.63;85.50;98955.13;5022338;28;20283;-70
2023/12/03 10:26:26;;;;;;;;;;;;;;;-5.60;85.75;98951.28;5003493;28;20510;-70
2023/12/03 10:28:53;;;;;;;;;;;;;;;-5.63;85.25;98949.81;5022044;28;19929;-70
2023/12/03 10:31:18;;;;;;;;;;;;;;;-5.69;85.28;98945.25;5020804;28;19936;-72
2023/12/03 10:33:45;;;;;;;;;;;;;;;-5.70;85.80;98941.78;5023344;28;19929;-70
2023/12/03 10:36:11;;;;;;;;;;;;;;;-5.68;85.91;98946.91;5019963;28;19928;-70
2023/12/03 10:38:40;;;;;;;;;;;;;;;-5.62;85.88;98940.81;5009290;28;20408;-70
2023/12/03 10:41:07;;;;;;;;;;;;;;;-5.61;85.59;98939.81;5012125;28;20400;-70
2023/12/03 10:43:34;;;;;;;;;;;;;;;-5.56;85.63;98931.22;5012280;28;19929;-70
2023/12/03 10:46:00;;;;;;;;;;;;;;;-5.54;85.33;98929.22;5012802;28;20024;-69
2023/12/03 10:48:27;;;;;;;;;;;;;;;-5.56;85.14;98913.41;5016671;28;20047;-70
2023/12/03 10:50:56;;;;;;;;;;;;;;;-5.58;84.86;98904.78;5012001;28;20478;-70
2023/12/03 10:53:23;;;;;;;;;;;;;;;-5.59;84.68;98896.97;5012451;28;20053;-70
2023/12/03 10:55:50;;;;;;;;;;;;;;;-5.69;84.29;98894.66;5009901;28;20020;-70
2023/12/03 10:58:19;;;;;;;;;;;;;;;-5.67;84.44;98884.63;5002045;28;20221;-70
2023/12/03 11:00:51;;;;;;;;;;;;;;;-5.71;84.05;98870.84;5006550;28;19952;-70
2023/12/03 11:03:20;;;;;;;;;;;;;;;-5.72;84.10;98855.88;5011004;28;20389;-70
2023/12/03 11:05:50;;;;;;;;;;;;;;;-5.74;83.92;98847.28;5013635;28;19983;-70
2023/12/03 11:08:17;;;;;;;;;;;;;;;-5.71;84.00;98832.75;5014531;28;19929;-70
2023/12/03 11:10:44;;;;;;;;;;;;;;;-5.76;84.02;98849.31;5009675;28;19984;-71
2023/12/03 11:13:12;;;;;;;;;;;;;;;-5.84;84.29;98834.28;5015098;28;20044;-70
2023/12/03 11:15:39;;;;;;;;;;;;;;;-5.86;84.42;98836.31;5010703;28;20222;-69
2023/12/03 11:18:06;;;;;;;;;;;;;;;-5.94;84.24;98836.44;5024774;28;19929;-80
2023/12/03 11:20:35;;;;;;;;;;;;;;;-5.96;84.45;98829.69;5005711;28;20107;-72
2023/12/03 11:23:12;;;;;;;;;;;;;;;-5.99;84.85;98833.53;5029268;28;19930;-70
2023/12/03 11:25:45;;;;;;;;;;;;;;;-6.03;84.75;98843.75;5008727;28;19936;-71
2023/12/03 11:28:12;;;;;;;;;;;;;;;-6.03;84.99;98845.63;5017341;28;19929;-72
2023/12/03 11:30:40;;;;;;;;;;;;;;;-6.04;85.15;98855.44;4992235;28;19935;-74
2023/12/03 11:33:07;;;;;;;;;;;;;;;-6.03;85.33;98843.75;5012186;28;20042;-74
2023/12/03 11:35:34;;;;;;;;;;;;;;;-5.99;85.54;98820.22;5017114;28;20019;-71
2023/12/03 11:38:00;;;;;;;;;;;;;;;-5.91;85.48;98813.94;5010470;28;20326;-74
2023/12/03 11:40:32;;;;;;;;;;;;;;;-5.90;85.30;98803.09;5010970;28;20404;-72
2023/12/03 11:43:03;;;;;;;;;;;;;;;-5.82;85.14;98793.31;5009069;28;20404;-73
2023/12/03 11:45:31;;;;;;;;;;;;;;;-5.76;84.99;98781.91;5014104;28;19933;-74
2023/12/03 11:48:08;;;;;;;;;;;;;;;-5.74;84.88;98785.19;5017665;28;20042;-74
2023/12/03 11:50:35;;;;;;;;;;;;;;;-5.76;84.99;98781.91;5003822;28;20320;-74
2023/12/03 11:53:13;;;;;;;;;;;;;;;-5.78;85.17;98774.09;5015347;28;20277;-73
2023/12/03 11:55:49;;;;;;;;;;;;;;;-5.79;85.16;98766.28;5047507;28;19933;-75
2023/12/03 11:58:59;;;;;;;;;;;;;;;-5.81;85.24;98758.53;5016443;28;20400;-74
2023/12/03 12:01:31;;;;;;;;;;;;;;;-5.85;85.26;98767.91;5019756;28;19933;-74
2023/12/03 12:03:57;;;;;;;;;;;;;;;-5.93;85.41;98765.38;5013973;28;19929;-73
2023/12/03 12:06:27;;;;;;;;;;;;;;;-6.01;85.80;98772.50;5017659;28;20426;-75
2023/12/03 12:08:53;;;;;;;;;;;;;;;-6.04;86.44;98767.56;5009808;28;19929;-74
2023/12/03 12:11:19;;;;;;;;;;;;;;;-6.02;86.88;98764.72;5004030;28;19929;-74
2023/12/03 12:13:45;;;;;;;;;;;;;;;-6.04;86.99;98758.78;5016410;28;20348;-73
2023/12/03 12:16:12;;;;;;;;;;;;;;;-6.03;86.95;98761.22;5040511;28;19936;-74
2023/12/03 12:18:39;;;;;;;;;;;;;;;-5.97;86.88;98756.94;5015759;28;20403;-74
2023/12/03 12:21:06;;;;;;;;;;;;;;;-5.97;86.63;98762.28;5014502;28;20314;-74
2023/12/03 12:23:43;;;;;;;;;;;;;;;-5.97;86.12;98754.28;5015640;28;20137;-74
2023/12/03 12:26:12;;;;;;;;;;;;;;;-5.89;86.19;98740.84;5021824;28;20429;-74
2023/12/03 12:28:41;;;;;;;;;;;;;;;-5.91;85.97;98732.22;5019935;28;19929;-75
2023/12/03 12:31:11;;;;;;;;;;;;;;;-5.94;86.08;98732.59;5017588;28;19929;-75
2023/12/03 12:33:42;;;;;;;;;;;;;;;-5.95;86.08;98719.50;5041273;28;19929;-73
2023/12/03 12:36:09;;;;;;;;;;;;;;;-5.94;85.83;98702.50;5013841;28;19929;-74
2023/12/03 12:38:40;;;;;;;;;;;;;;;-5.93;85.86;98706.81;5000458;28;19929;-74
2023/12/03 12:41:06;;;;;;;;;;;;;;;-5.90;85.74;98701.94;4999331;28;20362;-74
2023/12/03 12:43:41;;;;;;;;;;;;;;;-5.92;85.17;98714.63;5021323;28;19936;-74